Terminal Aerodrome Forecast
Issued by NWS

Home | Current Version | Previous Version | Graphics & Text | Print | Product List | Glossary On
Versions: 1 2 3 4 5 6 7 8 9 10 11 12 13 14 15 16 17 18 19 20 21 22 23 24 25 26 27
000
FTUS43 KBIS 271400 AAB
TAFMOT
TAF AMD
KMOT 271439Z 2715/2812 31009KT P6SM -RA SCT007 OVC035
      TEMPO 2715/2717 SCT007 OVC025
     FM271700 31009KT P6SM OVC025
     FM272100 32006KT P6SM SCT050=

USA.gov is the U.S. government's official web portal to all federal, state and local government web resources and services.